sensor_id;sensor_type;location;lat;lon;timestamp;P1;durP1;ratioP1;P2;durP2;ratioP2
19358;SDS011;9815;52.334;20.890;2023-03-01T00:01:17;68.23;;;25.67;;
19358;SDS011;9815;52.334;20.890;2023-03-01T00:03:47;60.73;;;25.20;;
19358;SDS011;9815;52.334;20.890;2023-03-01T00:06:15;63.03;;;25.17;;
19358;SDS011;9815;52.334;20.890;2023-03-01T00:08:43;62.50;;;25.50;;
19358;SDS011;9815;52.334;20.890;2023-03-01T00:11:12;57.93;;;25.70;;
19358;SDS011;9815;52.334;20.890;2023-03-01T00:13:41;69.67;;;25.20;;
19358;SDS011;9815;52.334;20.890;2023-03-01T00:16:11;65.10;;;25.80;;
19358;SDS011;9815;52.334;20.890;2023-03-01T00:18:42;66.90;;;26.03;;
19358;SDS011;9815;52.334;20.890;2023-03-01T00:21:10;64.10;;;24.50;;
19358;SDS011;9815;52.334;20.890;2023-03-01T00:23:39;61.33;;;26.17;;
19358;SDS011;9815;52.334;20.890;2023-03-01T00:26:07;65.03;;;26.07;;
19358;SDS011;9815;52.334;20.890;2023-03-01T00:28:39;65.23;;;26.43;;
19358;SDS011;9815;52.334;20.890;2023-03-01T00:31:08;58.00;;;23.80;;
19358;SDS011;9815;52.334;20.890;2023-03-01T00:33:38;58.43;;;24.03;;
19358;SDS011;9815;52.334;20.890;2023-03-01T00:36:07;61.57;;;25.00;;
19358;SDS011;9815;52.334;20.890;2023-03-01T00:38:37;60.77;;;24.67;;
19358;SDS011;9815;52.334;20.890;2023-03-01T00:41:07;64.17;;;24.80;;
19358;SDS011;9815;52.334;20.890;2023-03-01T00:43:36;58.27;;;24.57;;
19358;SDS011;9815;52.334;20.890;2023-03-01T00:46:05;63.77;;;24.13;;
19358;SDS011;9815;52.334;20.890;2023-03-01T00:48:35;67.70;;;24.97;;
19358;SDS011;9815;52.334;20.890;2023-03-01T00:51:04;64.87;;;26.10;;
19358;SDS011;9815;52.334;20.890;2023-03-01T00:53:34;57.23;;;23.70;;
19358;SDS011;9815;52.334;20.890;2023-03-01T00:56:03;60.50;;;23.60;;
19358;SDS011;9815;52.334;20.890;2023-03-01T00:58:33;62.37;;;24.10;;
19358;SDS011;9815;52.334;20.890;2023-03-01T01:01:06;60.57;;;25.00;;
19358;SDS011;9815;52.334;20.890;2023-03-01T01:03:44;66.03;;;24.50;;
19358;SDS011;9815;52.334;20.890;2023-03-01T01:06:14;58.47;;;23.93;;
19358;SDS011;9815;52.334;20.890;2023-03-01T01:08:48;58.30;;;24.50;;
19358;SDS011;9815;52.334;20.890;2023-03-01T01:11:16;61.90;;;24.37;;
19358;SDS011;9815;52.334;20.890;2023-03-01T01:13:46;74.40;;;25.40;;
19358;SDS011;9815;52.334;20.890;2023-03-01T01:16:15;55.10;;;23.37;;
19358;SDS011;9815;52.334;20.890;2023-03-01T01:18:44;61.43;;;25.33;;
19358;SDS011;9815;52.334;20.890;2023-03-01T01:21:14;61.07;;;24.63;;
19358;SDS011;9815;52.334;20.890;2023-03-01T01:23:43;54.00;;;22.70;;
19358;SDS011;9815;52.334;20.890;2023-03-01T01:26:14;62.70;;;24.07;;
19358;SDS011;9815;52.334;20.890;2023-03-01T01:28:44;56.33;;;23.23;;
19358;SDS011;9815;52.334;20.890;2023-03-01T01:31:12;57.30;;;24.40;;
19358;SDS011;9815;52.334;20.890;2023-03-01T01:33:41;59.73;;;24.23;;
19358;SDS011;9815;52.334;20.890;2023-03-01T01:36:09;58.77;;;23.23;;
19358;SDS011;9815;52.334;20.890;2023-03-01T01:38:38;59.60;;;23.83;;
19358;SDS011;9815;52.334;20.890;2023-03-01T01:41:06;69.40;;;25.83;;
19358;SDS011;9815;52.334;20.890;2023-03-01T01:43:36;57.87;;;25.20;;
19358;SDS011;9815;52.334;20.890;2023-03-01T01:46:10;66.30;;;26.07;;
19358;SDS011;9815;52.334;20.890;2023-03-01T01:48:48;66.57;;;26.50;;
19358;SDS011;9815;52.334;20.890;2023-03-01T01:51:23;62.67;;;26.17;;
19358;SDS011;9815;52.334;20.890;2023-03-01T01:53:56;64.97;;;26.37;;
19358;SDS011;9815;52.334;20.890;2023-03-01T01:56:27;64.07;;;25.77;;
19358;SDS011;9815;52.334;20.890;2023-03-01T01:58:58;65.43;;;26.13;;
19358;SDS011;9815;52.334;20.890;2023-03-01T02:01:26;65.37;;;26.87;;
19358;SDS011;9815;52.334;20.890;2023-03-01T02:03:54;59.80;;;24.60;;
19358;SDS011;9815;52.334;20.890;2023-03-01T02:06:25;70.33;;;25.03;;
19358;SDS011;9815;52.334;20.890;2023-03-01T02:08:57;60.83;;;25.20;;
19358;SDS011;9815;52.334;20.890;2023-03-01T02:11:27;60.13;;;24.63;;
19358;SDS011;9815;52.334;20.890;2023-03-01T02:13:57;59.07;;;24.93;;
19358;SDS011;9815;52.334;20.890;2023-03-01T02:16:26;60.40;;;25.03;;
19358;SDS011;9815;52.334;20.890;2023-03-01T02:18:56;57.70;;;23.60;;
19358;SDS011;9815;52.334;20.890;2023-03-01T02:21:28;59.07;;;24.73;;
19358;SDS011;9815;52.334;20.890;2023-03-01T02:24:05;64.07;;;24.53;;
19358;SDS011;9815;52.334;20.890;2023-03-01T02:26:42;62.67;;;24.13;;
19358;SDS011;9815;52.334;20.890;2023-03-01T02:29:15;73.53;;;26.10;;
19358;SDS011;9815;52.334;20.890;2023-03-01T02:31:43;70.27;;;25.53;;
19358;SDS011;9815;52.334;20.890;2023-03-01T02:34:12;64.77;;;24.37;;
19358;SDS011;9815;52.334;20.890;2023-03-01T02:36:43;64.50;;;25.13;;
19358;SDS011;9815;52.334;20.890;2023-03-01T02:39:14;67.87;;;25.23;;
19358;SDS011;9815;52.334;20.890;2023-03-01T02:41:46;60.63;;;25.63;;
19358;SDS011;9815;52.334;20.890;2023-03-01T02:44:18;67.60;;;25.73;;
19358;SDS011;9815;52.334;20.890;2023-03-01T02:46:46;71.77;;;24.90;;
19358;SDS011;9815;52.334;20.890;2023-03-01T02:49:24;66.97;;;25.90;;
19358;SDS011;9815;52.334;20.890;2023-03-01T02:54:56;61.17;;;24.83;;
19358;SDS011;9815;52.334;20.890;2023-03-01T02:57:28;63.70;;;25.77;;
19358;SDS011;9815;52.334;20.890;2023-03-01T03:00:02;62.97;;;26.00;;
19358;SDS011;9815;52.334;20.890;2023-03-01T03:02:35;54.53;;;25.07;;
19358;SDS011;9815;52.334;20.890;2023-03-01T03:05:09;65.37;;;26.70;;
19358;SDS011;9815;52.334;20.890;2023-03-01T03:07:39;64.80;;;25.47;;
19358;SDS011;9815;52.334;20.890;2023-03-01T03:10:09;63.67;;;25.67;;
19358;SDS011;9815;52.334;20.890;2023-03-01T03:12:38;62.97;;;24.70;;
19358;SDS011;9815;52.334;20.890;2023-03-01T03:15:09;69.00;;;25.67;;
19358;SDS011;9815;52.334;20.890;2023-03-01T03:17:39;67.80;;;25.33;;
19358;SDS011;9815;52.334;20.890;2023-03-01T03:20:12;58.07;;;25.73;;
19358;SDS011;9815;52.334;20.890;2023-03-01T03:22:45;66.77;;;25.27;;
19358;SDS011;9815;52.334;20.890;2023-03-01T03:25:14;60.87;;;24.50;;
19358;SDS011;9815;52.334;20.890;2023-03-01T03:27:43;59.87;;;24.90;;
19358;SDS011;9815;52.334;20.890;2023-03-01T03:30:14;60.57;;;24.27;;
19358;SDS011;9815;52.334;20.890;2023-03-01T03:32:44;62.20;;;24.17;;
19358;SDS011;9815;52.334;20.890;2023-03-01T03:35:18;64.67;;;25.37;;
19358;SDS011;9815;52.334;20.890;2023-03-01T03:37:48;68.43;;;27.10;;
19358;SDS011;9815;52.334;20.890;2023-03-01T03:40:30;63.10;;;25.50;;
19358;SDS011;9815;52.334;20.890;2023-03-01T03:43:00;63.63;;;25.83;;
19358;SDS011;9815;52.334;20.890;2023-03-01T03:45:29;66.60;;;26.17;;
19358;SDS011;9815;52.334;20.890;2023-03-01T03:47:59;69.97;;;25.83;;
19358;SDS011;9815;52.334;20.890;2023-03-01T03:50:27;66.23;;;25.37;;
19358;SDS011;9815;52.334;20.890;2023-03-01T03:52:56;62.07;;;25.47;;
19358;SDS011;9815;52.334;20.890;2023-03-01T03:55:24;63.27;;;25.83;;
19358;SDS011;9815;52.334;20.890;2023-03-01T03:57:56;71.47;;;26.60;;
19358;SDS011;9815;52.334;20.890;2023-03-01T04:00:29;66.13;;;26.30;;
19358;SDS011;9815;52.334;20.890;2023-03-01T04:02:57;61.87;;;25.87;;
19358;SDS011;9815;52.334;20.890;2023-03-01T04:05:26;67.20;;;25.43;;
19358;SDS011;9815;52.334;20.890;2023-03-01T04:07:54;60.57;;;24.70;;
19358;SDS011;9815;52.334;20.890;2023-03-01T04:10:28;58.77;;;23.80;;
19358;SDS011;9815;52.334;20.890;2023-03-01T04:12:58;62.43;;;24.23;;
19358;SDS011;9815;52.334;20.890;2023-03-01T04:15:26;64.60;;;25.63;;
19358;SDS011;9815;52.334;20.890;2023-03-01T04:17:55;58.83;;;24.83;;
19358;SDS011;9815;52.334;20.890;2023-03-01T04:20:26;72.37;;;25.97;;
19358;SDS011;9815;52.334;20.890;2023-03-01T04:23:00;64.17;;;25.67;;
19358;SDS011;9815;52.334;20.890;2023-03-01T04:25:37;68.30;;;26.40;;
19358;SDS011;9815;52.334;20.890;2023-03-01T04:28:06;75.73;;;28.53;;
19358;SDS011;9815;52.334;20.890;2023-03-01T04:30:34;68.70;;;26.33;;
19358;SDS011;9815;52.334;20.890;2023-03-01T04:33:05;71.93;;;25.47;;
19358;SDS011;9815;52.334;20.890;2023-03-01T04:35:34;56.10;;;24.37;;
19358;SDS011;9815;52.334;20.890;2023-03-01T04:38:04;66.43;;;25.37;;
19358;SDS011;9815;52.334;20.890;2023-03-01T04:40:32;59.53;;;24.20;;
19358;SDS011;9815;52.334;20.890;2023-03-01T04:43:00;62.17;;;24.57;;
19358;SDS011;9815;52.334;20.890;2023-03-01T04:45:29;72.33;;;25.17;;
19358;SDS011;9815;52.334;20.890;2023-03-01T04:47:58;62.63;;;25.17;;
19358;SDS011;9815;52.334;20.890;2023-03-01T04:50:28;62.27;;;24.60;;
19358;SDS011;9815;52.334;20.890;2023-03-01T04:52:56;63.93;;;23.37;;
19358;SDS011;9815;52.334;20.890;2023-03-01T04:55:25;63.03;;;24.50;;
19358;SDS011;9815;52.334;20.890;2023-03-01T04:57:54;63.00;;;25.60;;
19358;SDS011;9815;52.334;20.890;2023-03-01T05:00:22;70.70;;;26.37;;
19358;SDS011;9815;52.334;20.890;2023-03-01T05:02:51;61.13;;;25.33;;
19358;SDS011;9815;52.334;20.890;2023-03-01T05:05:22;61.70;;;25.47;;
19358;SDS011;9815;52.334;20.890;2023-03-01T05:07:54;65.10;;;25.00;;
19358;SDS011;9815;52.334;20.890;2023-03-01T05:10:23;73.70;;;25.50;;
19358;SDS011;9815;52.334;20.890;2023-03-01T05:12:52;57.17;;;24.60;;
19358;SDS011;9815;52.334;20.890;2023-03-01T05:15:20;63.73;;;24.60;;
19358;SDS011;9815;52.334;20.890;2023-03-01T05:17:52;62.27;;;25.07;;
19358;SDS011;9815;52.334;20.890;2023-03-01T05:20:21;73.83;;;27.07;;
19358;SDS011;9815;52.334;20.890;2023-03-01T05:22:50;70.03;;;25.90;;
19358;SDS011;9815;52.334;20.890;2023-03-01T05:25:20;62.83;;;26.20;;
19358;SDS011;9815;52.334;20.890;2023-03-01T05:27:48;63.70;;;25.50;;
19358;SDS011;9815;52.334;20.890;2023-03-01T05:30:17;64.87;;;25.23;;
19358;SDS011;9815;52.334;20.890;2023-03-01T05:32:46;63.60;;;25.60;;
19358;SDS011;9815;52.334;20.890;2023-03-01T05:35:15;64.80;;;27.37;;
19358;SDS011;9815;52.334;20.890;2023-03-01T05:37:45;69.83;;;26.70;;
19358;SDS011;9815;52.334;20.890;2023-03-01T05:40:15;62.17;;;27.43;;
19358;SDS011;9815;52.334;20.890;2023-03-01T05:42:47;70.77;;;27.37;;
19358;SDS011;9815;52.334;20.890;2023-03-01T05:45:16;82.83;;;27.63;;
19358;SDS011;9815;52.334;20.890;2023-03-01T05:47:45;66.83;;;26.93;;
19358;SDS011;9815;52.334;20.890;2023-03-01T05:50:15;63.50;;;26.67;;
19358;SDS011;9815;52.334;20.890;2023-03-01T05:52:45;71.47;;;27.47;;
19358;SDS011;9815;52.334;20.890;2023-03-01T05:55:15;73.73;;;27.27;;
19358;SDS011;9815;52.334;20.890;2023-03-01T05:57:43;70.90;;;27.07;;
19358;SDS011;9815;52.334;20.890;2023-03-01T06:00:14;69.97;;;26.50;;
19358;SDS011;9815;52.334;20.890;2023-03-01T06:02:44;65.57;;;27.23;;
19358;SDS011;9815;52.334;20.890;2023-03-01T06:05:12;75.43;;;27.40;;
19358;SDS011;9815;52.334;20.890;2023-03-01T06:07:41;71.57;;;27.93;;
19358;SDS011;9815;52.334;20.890;2023-03-01T06:10:10;68.67;;;27.70;;
19358;SDS011;9815;52.334;20.890;2023-03-01T06:12:39;72.97;;;27.40;;
19358;SDS011;9815;52.334;20.890;2023-03-01T06:15:10;63.60;;;27.63;;
19358;SDS011;9815;52.334;20.890;2023-03-01T06:17:40;71.83;;;28.13;;
19358;SDS011;9815;52.334;20.890;2023-03-01T06:20:10;78.00;;;27.00;;
19358;SDS011;9815;52.334;20.890;2023-03-01T06:22:40;74.10;;;27.30;;
19358;SDS011;9815;52.334;20.890;2023-03-01T06:25:09;71.77;;;28.27;;
19358;SDS011;9815;52.334;20.890;2023-03-01T06:27:38;73.70;;;28.17;;
19358;SDS011;9815;52.334;20.890;2023-03-01T06:30:07;67.23;;;28.10;;
19358;SDS011;9815;52.334;20.890;2023-03-01T06:32:36;71.07;;;29.10;;
19358;SDS011;9815;52.334;20.890;2023-03-01T06:35:09;77.07;;;29.17;;
19358;SDS011;9815;52.334;20.890;2023-03-01T06:37:39;73.20;;;29.07;;
19358;SDS011;9815;52.334;20.890;2023-03-01T06:40:07;73.20;;;30.27;;
19358;SDS011;9815;52.334;20.890;2023-03-01T06:42:39;72.13;;;28.90;;
19358;SDS011;9815;52.334;20.890;2023-03-01T06:45:08;72.77;;;28.67;;
19358;SDS011;9815;52.334;20.890;2023-03-01T06:47:37;74.47;;;28.90;;
19358;SDS011;9815;52.334;20.890;2023-03-01T06:50:05;69.47;;;29.37;;
19358;SDS011;9815;52.334;20.890;2023-03-01T06:52:35;70.37;;;28.53;;
19358;SDS011;9815;52.334;20.890;2023-03-01T06:55:04;77.03;;;29.93;;
19358;SDS011;9815;52.334;20.890;2023-03-01T06:57:33;71.43;;;28.03;;
19358;SDS011;9815;52.334;20.890;2023-03-01T07:00:01;65.10;;;26.93;;
19358;SDS011;9815;52.334;20.890;2023-03-01T07:02:29;68.10;;;26.23;;
19358;SDS011;9815;52.334;20.890;2023-03-01T07:04:57;66.27;;;25.63;;
19358;SDS011;9815;52.334;20.890;2023-03-01T07:07:25;64.77;;;25.40;;
19358;SDS011;9815;52.334;20.890;2023-03-01T07:09:54;63.07;;;24.90;;
19358;SDS011;9815;52.334;20.890;2023-03-01T07:12:22;64.70;;;24.27;;
19358;SDS011;9815;52.334;20.890;2023-03-01T07:14:50;63.93;;;25.20;;
19358;SDS011;9815;52.334;20.890;2023-03-01T07:17:18;64.83;;;24.70;;
19358;SDS011;9815;52.334;20.890;2023-03-01T07:19:46;61.03;;;23.87;;
19358;SDS011;9815;52.334;20.890;2023-03-01T07:22:14;63.27;;;22.33;;
19358;SDS011;9815;52.334;20.890;2023-03-01T07:24:42;60.83;;;23.67;;
19358;SDS011;9815;52.334;20.890;2023-03-01T07:27:11;54.67;;;22.50;;
19358;SDS011;9815;52.334;20.890;2023-03-01T07:29:39;50.60;;;22.60;;
19358;SDS011;9815;52.334;20.890;2023-03-01T07:32:07;63.03;;;24.23;;
19358;SDS011;9815;52.334;20.890;2023-03-01T07:34:36;61.83;;;24.23;;
19358;SDS011;9815;52.334;20.890;2023-03-01T07:37:04;54.90;;;23.13;;
19358;SDS011;9815;52.334;20.890;2023-03-01T07:39:32;56.47;;;23.67;;
19358;SDS011;9815;52.334;20.890;2023-03-01T07:42:00;60.73;;;23.03;;
19358;SDS011;9815;52.334;20.890;2023-03-01T07:44:29;55.30;;;23.17;;
19358;SDS011;9815;52.334;20.890;2023-03-01T07:46:57;52.03;;;20.50;;
19358;SDS011;9815;52.334;20.890;2023-03-01T07:49:25;51.37;;;20.67;;
19358;SDS011;9815;52.334;20.890;2023-03-01T07:51:53;45.37;;;19.47;;
19358;SDS011;9815;52.334;20.890;2023-03-01T07:54:22;46.27;;;20.10;;
19358;SDS011;9815;52.334;20.890;2023-03-01T07:56:50;49.97;;;19.30;;
19358;SDS011;9815;52.334;20.890;2023-03-01T07:59:18;46.93;;;18.80;;
19358;SDS011;9815;52.334;20.890;2023-03-01T08:01:47;40.90;;;17.80;;
19358;SDS011;9815;52.334;20.890;2023-03-01T08:04:15;41.90;;;17.40;;
19358;SDS011;9815;52.334;20.890;2023-03-01T08:06:43;80.63;;;26.20;;
19358;SDS011;9815;52.334;20.890;2023-03-01T08:09:11;53.77;;;21.63;;
19358;SDS011;9815;52.334;20.890;2023-03-01T08:11:39;42.13;;;18.53;;
19358;SDS011;9815;52.334;20.890;2023-03-01T08:14:07;40.97;;;16.73;;
19358;SDS011;9815;52.334;20.890;2023-03-01T08:16:36;36.47;;;15.43;;
19358;SDS011;9815;52.334;20.890;2023-03-01T08:19:06;38.93;;;14.33;;
19358;SDS011;9815;52.334;20.890;2023-03-01T08:21:35;38.77;;;14.93;;
19358;SDS011;9815;52.334;20.890;2023-03-01T08:24:04;32.93;;;15.27;;
19358;SDS011;9815;52.334;20.890;2023-03-01T08:26:33;32.63;;;14.07;;
19358;SDS011;9815;52.334;20.890;2023-03-01T08:29:01;40.40;;;15.00;;
19358;SDS011;9815;52.334;20.890;2023-03-01T08:31:31;34.00;;;15.57;;
19358;SDS011;9815;52.334;20.890;2023-03-01T08:34:02;39.60;;;16.30;;
19358;SDS011;9815;52.334;20.890;2023-03-01T08:36:36;45.47;;;17.37;;
19358;SDS011;9815;52.334;20.890;2023-03-01T08:39:07;39.83;;;15.27;;
19358;SDS011;9815;52.334;20.890;2023-03-01T08:41:36;38.37;;;16.67;;
19358;SDS011;9815;52.334;20.890;2023-03-01T08:44:05;33.40;;;15.33;;
19358;SDS011;9815;52.334;20.890;2023-03-01T08:46:34;36.67;;;16.80;;
19358;SDS011;9815;52.334;20.890;2023-03-01T08:49:04;32.70;;;14.80;;
19358;SDS011;9815;52.334;20.890;2023-03-01T08:51:33;35.27;;;16.03;;
19358;SDS011;9815;52.334;20.890;2023-03-01T08:54:04;39.20;;;17.33;;
19358;SDS011;9815;52.334;20.890;2023-03-01T08:56:33;37.00;;;15.73;;
19358;SDS011;9815;52.334;20.890;2023-03-01T08:59:01;40.83;;;15.93;;
19358;SDS011;9815;52.334;20.890;2023-03-01T09:01:29;37.27;;;16.40;;
19358;SDS011;9815;52.334;20.890;2023-03-01T09:03:57;37.03;;;15.83;;
19358;SDS011;9815;52.334;20.890;2023-03-01T09:06:25;41.90;;;16.83;;
19358;SDS011;9815;52.334;20.890;2023-03-01T09:08:53;43.10;;;15.80;;
19358;SDS011;9815;52.334;20.890;2023-03-01T09:11:23;45.43;;;16.93;;
19358;SDS011;9815;52.334;20.890;2023-03-01T09:13:51;39.60;;;17.03;;
19358;SDS011;9815;52.334;20.890;2023-03-01T09:16:19;35.17;;;16.17;;
19358;SDS011;9815;52.334;20.890;2023-03-01T09:18:48;40.23;;;15.80;;
19358;SDS011;9815;52.334;20.890;2023-03-01T09:21:17;39.53;;;15.77;;
19358;SDS011;9815;52.334;20.890;2023-03-01T09:24:04;31.73;;;15.30;;
19358;SDS011;9815;52.334;20.890;2023-03-01T09:26:34;35.93;;;14.83;;
19358;SDS011;9815;52.334;20.890;2023-03-01T09:29:02;37.80;;;15.73;;
19358;SDS011;9815;52.334;20.890;2023-03-01T09:31:30;37.97;;;15.37;;
19358;SDS011;9815;52.334;20.890;2023-03-01T09:33:58;32.23;;;14.53;;
19358;SDS011;9815;52.334;20.890;2023-03-01T09:36:26;36.40;;;15.97;;
19358;SDS011;9815;52.334;20.890;2023-03-01T09:38:55;35.67;;;15.13;;
19358;SDS011;9815;52.334;20.890;2023-03-01T09:41:38;33.17;;;15.43;;
19358;SDS011;9815;52.334;20.890;2023-03-01T09:47:12;34.73;;;14.73;;
19358;SDS011;9815;52.334;20.890;2023-03-01T09:49:45;30.97;;;13.20;;
19358;SDS011;9815;52.334;20.890;2023-03-01T09:52:24;31.63;;;13.60;;
19358;SDS011;9815;52.334;20.890;2023-03-01T09:54:57;31.43;;;12.70;;
19358;SDS011;9815;52.334;20.890;2023-03-01T09:57:29;31.37;;;13.23;;
19358;SDS011;9815;52.334;20.890;2023-03-01T10:00:12;29.27;;;13.23;;
19358;SDS011;9815;52.334;20.890;2023-03-01T10:02:52;27.37;;;12.60;;
19358;SDS011;9815;52.334;20.890;2023-03-01T10:05:31;28.20;;;12.43;;
19358;SDS011;9815;52.334;20.890;2023-03-01T10:08:14;28.60;;;12.90;;
19358;SDS011;9815;52.334;20.890;2023-03-01T10:11:03;32.93;;;12.03;;
19358;SDS011;9815;52.334;20.890;2023-03-01T10:13:37;27.00;;;12.30;;
19358;SDS011;9815;52.334;20.890;2023-03-01T10:16:16;24.67;;;11.33;;
19358;SDS011;9815;52.334;20.890;2023-03-01T10:18:51;26.47;;;11.83;;
19358;SDS011;9815;52.334;20.890;2023-03-01T10:21:23;21.00;;;10.30;;
19358;SDS011;9815;52.334;20.890;2023-03-01T10:23:53;22.43;;;10.60;;
19358;SDS011;9815;52.334;20.890;2023-03-01T10:26:28;22.50;;;10.03;;
19358;SDS011;9815;52.334;20.890;2023-03-01T10:29:07;28.27;;;12.70;;
19358;SDS011;9815;52.334;20.890;2023-03-01T10:31:38;26.20;;;11.40;;
19358;SDS011;9815;52.334;20.890;2023-03-01T10:34:10;25.23;;;10.63;;
19358;SDS011;9815;52.334;20.890;2023-03-01T10:36:39;21.23;;;10.13;;
19358;SDS011;9815;52.334;20.890;2023-03-01T10:39:13;22.33;;;9.93;;
19358;SDS011;9815;52.334;20.890;2023-03-01T10:42:00;29.53;;;11.67;;
19358;SDS011;9815;52.334;20.890;2023-03-01T10:47:19;20.10;;;9.70;;
19358;SDS011;9815;52.334;20.890;2023-03-01T10:50:00;21.47;;;9.37;;
19358;SDS011;9815;52.334;20.890;2023-03-01T10:52:31;19.50;;;9.63;;
19358;SDS011;9815;52.334;20.890;2023-03-01T10:55:02;18.70;;;9.37;;
19358;SDS011;9815;52.334;20.890;2023-03-01T10:57:47;20.33;;;10.03;;
19358;SDS011;9815;52.334;20.890;2023-03-01T11:00:21;22.40;;;10.90;;
19358;SDS011;9815;52.334;20.890;2023-03-01T11:03:01;19.60;;;9.43;;
19358;SDS011;9815;52.334;20.890;2023-03-01T11:05:37;20.40;;;8.80;;
19358;SDS011;9815;52.334;20.890;2023-03-01T11:08:32;19.37;;;9.33;;
19358;SDS011;9815;52.334;20.890;2023-03-01T11:11:22;19.87;;;9.27;;
19358;SDS011;9815;52.334;20.890;2023-03-01T11:13:59;22.47;;;10.00;;
19358;SDS011;9815;52.334;20.890;2023-03-01T11:16:40;20.10;;;9.10;;
19358;SDS011;9815;52.334;20.890;2023-03-01T11:19:17;22.63;;;9.80;;
19358;SDS011;9815;52.334;20.890;2023-03-01T11:21:53;22.23;;;9.70;;
19358;SDS011;9815;52.334;20.890;2023-03-01T11:24:27;20.87;;;10.00;;
19358;SDS011;9815;52.334;20.890;2023-03-01T11:27:04;19.63;;;10.47;;
19358;SDS011;9815;52.334;20.890;2023-03-01T11:29:42;22.73;;;10.10;;
19358;SDS011;9815;52.334;20.890;2023-03-01T11:32:16;23.13;;;10.47;;
19358;SDS011;9815;52.334;20.890;2023-03-01T11:34:46;21.63;;;10.67;;
19358;SDS011;9815;52.334;20.890;2023-03-01T11:37:21;24.07;;;11.10;;
19358;SDS011;9815;52.334;20.890;2023-03-01T11:40:02;22.27;;;10.57;;
19358;SDS011;9815;52.334;20.890;2023-03-01T11:42:42;23.67;;;10.90;;
19358;SDS011;9815;52.334;20.890;2023-03-01T11:45:19;23.37;;;11.10;;
19358;SDS011;9815;52.334;20.890;2023-03-01T11:47:58;29.63;;;11.40;;
19358;SDS011;9815;52.334;20.890;2023-03-01T11:50:35;24.90;;;11.10;;
19358;SDS011;9815;52.334;20.890;2023-03-01T11:56:20;24.17;;;11.47;;
19358;SDS011;9815;52.334;20.890;2023-03-01T11:59:03;23.13;;;11.60;;
19358;SDS011;9815;52.334;20.890;2023-03-01T12:01:58;24.83;;;12.57;;
19358;SDS011;9815;52.334;20.890;2023-03-01T12:07:37;29.07;;;13.17;;
19358;SDS011;9815;52.334;20.890;2023-03-01T12:10:20;30.27;;;14.23;;
19358;SDS011;9815;52.334;20.890;2023-03-01T12:12:54;28.97;;;14.60;;
19358;SDS011;9815;52.334;20.890;2023-03-01T12:15:37;31.83;;;14.90;;
19358;SDS011;9815;52.334;20.890;2023-03-01T12:18:30;32.47;;;16.73;;
19358;SDS011;9815;52.334;20.890;2023-03-01T12:21:24;28.40;;;13.57;;
19358;SDS011;9815;52.334;20.890;2023-03-01T12:24:10;30.20;;;14.70;;
19358;SDS011;9815;52.334;20.890;2023-03-01T12:26:59;28.57;;;13.87;;
19358;SDS011;9815;52.334;20.890;2023-03-01T12:29:38;37.67;;;15.43;;
19358;SDS011;9815;52.334;20.890;2023-03-01T12:32:25;33.00;;;16.33;;
19358;SDS011;9815;52.334;20.890;2023-03-01T12:35:10;28.73;;;14.00;;
19358;SDS011;9815;52.334;20.890;2023-03-01T12:37:58;29.37;;;14.73;;
19358;SDS011;9815;52.334;20.890;2023-03-01T12:40:33;29.07;;;14.70;;
19358;SDS011;9815;52.334;20.890;2023-03-01T12:43:17;23.97;;;13.17;;
19358;SDS011;9815;52.334;20.890;2023-03-01T12:45:57;32.67;;;14.13;;
19358;SDS011;9815;52.334;20.890;2023-03-01T12:48:40;26.40;;;13.40;;
19358;SDS011;9815;52.334;20.890;2023-03-01T12:51:14;30.70;;;14.53;;
19358;SDS011;9815;52.334;20.890;2023-03-01T12:53:46;28.10;;;14.03;;
19358;SDS011;9815;52.334;20.890;2023-03-01T12:56:17;27.10;;;12.87;;
19358;SDS011;9815;52.334;20.890;2023-03-01T12:58:50;31.03;;;13.87;;
19358;SDS011;9815;52.334;20.890;2023-03-01T13:01:30;26.57;;;12.53;;
19358;SDS011;9815;52.334;20.890;2023-03-01T13:04:11;27.60;;;12.97;;
19358;SDS011;9815;52.334;20.890;2023-03-01T13:06:47;25.37;;;13.73;;
19358;SDS011;9815;52.334;20.890;2023-03-01T13:09:24;29.07;;;14.00;;
19358;SDS011;9815;52.334;20.890;2023-03-01T13:12:00;31.03;;;14.57;;
19358;SDS011;9815;52.334;20.890;2023-03-01T13:14:44;30.87;;;14.00;;
19358;SDS011;9815;52.334;20.890;2023-03-01T13:17:29;25.03;;;12.97;;
19358;SDS011;9815;52.334;20.890;2023-03-01T13:22:44;27.97;;;12.83;;
19358;SDS011;9815;52.334;20.890;2023-03-01T13:25:21;25.77;;;12.90;;
19358;SDS011;9815;52.334;20.890;2023-03-01T13:30:54;28.43;;;13.77;;
19358;SDS011;9815;52.334;20.890;2023-03-01T13:33:33;27.63;;;13.63;;
19358;SDS011;9815;52.334;20.890;2023-03-01T13:36:08;26.53;;;12.73;;
19358;SDS011;9815;52.334;20.890;2023-03-01T13:38:44;31.30;;;13.20;;
19358;SDS011;9815;52.334;20.890;2023-03-01T13:41:16;27.60;;;13.17;;
19358;SDS011;9815;52.334;20.890;2023-03-01T13:43:45;25.30;;;13.70;;
19358;SDS011;9815;52.334;20.890;2023-03-01T13:46:16;27.83;;;13.83;;
19358;SDS011;9815;52.334;20.890;2023-03-01T13:48:48;26.10;;;13.53;;
19358;SDS011;9815;52.334;20.890;2023-03-01T13:51:20;27.27;;;13.17;;
19358;SDS011;9815;52.334;20.890;2023-03-01T13:53:52;21.77;;;12.27;;
19358;SDS011;9815;52.334;20.890;2023-03-01T13:56:24;24.63;;;12.97;;
19358;SDS011;9815;52.334;20.890;2023-03-01T13:58:55;27.60;;;13.00;;
19358;SDS011;9815;52.334;20.890;2023-03-01T14:01:29;28.80;;;13.00;;
19358;SDS011;9815;52.334;20.890;2023-03-01T14:03:59;25.87;;;13.37;;
19358;SDS011;9815;52.334;20.890;2023-03-01T14:06:29;25.70;;;13.37;;
19358;SDS011;9815;52.334;20.890;2023-03-01T14:09:03;28.23;;;13.60;;
19358;SDS011;9815;52.334;20.890;2023-03-01T14:11:46;28.97;;;14.13;;
19358;SDS011;9815;52.334;20.890;2023-03-01T14:20:18;24.93;;;13.67;;
19358;SDS011;9815;52.334;20.890;2023-03-01T14:22:49;31.23;;;15.03;;
19358;SDS011;9815;52.334;20.890;2023-03-01T14:25:21;37.17;;;16.40;;
19358;SDS011;9815;52.334;20.890;2023-03-01T14:27:57;32.10;;;15.57;;
19358;SDS011;9815;52.334;20.890;2023-03-01T14:30:31;30.53;;;15.63;;
19358;SDS011;9815;52.334;20.890;2023-03-01T14:33:04;29.13;;;14.70;;
19358;SDS011;9815;52.334;20.890;2023-03-01T14:35:34;34.00;;;16.13;;
19358;SDS011;9815;52.334;20.890;2023-03-01T14:38:03;32.80;;;16.00;;
19358;SDS011;9815;52.334;20.890;2023-03-01T14:40:32;30.67;;;15.87;;
19358;SDS011;9815;52.334;20.890;2023-03-01T14:43:08;35.13;;;16.80;;
19358;SDS011;9815;52.334;20.890;2023-03-01T14:45:38;32.53;;;16.23;;
19358;SDS011;9815;52.334;20.890;2023-03-01T14:48:06;30.53;;;15.77;;
19358;SDS011;9815;52.334;20.890;2023-03-01T14:50:35;30.33;;;15.27;;
19358;SDS011;9815;52.334;20.890;2023-03-01T14:53:12;35.20;;;17.73;;
19358;SDS011;9815;52.334;20.890;2023-03-01T14:55:46;31.43;;;16.13;;
19358;SDS011;9815;52.334;20.890;2023-03-01T14:58:20;29.87;;;16.27;;
19358;SDS011;9815;52.334;20.890;2023-03-01T15:00:50;27.57;;;15.63;;
19358;SDS011;9815;52.334;20.890;2023-03-01T15:03:27;28.93;;;15.97;;
19358;SDS011;9815;52.334;20.890;2023-03-01T15:05:58;31.53;;;16.27;;
19358;SDS011;9815;52.334;20.890;2023-03-01T15:08:28;32.63;;;16.97;;
19358;SDS011;9815;52.334;20.890;2023-03-01T15:11:00;30.83;;;16.07;;
19358;SDS011;9815;52.334;20.890;2023-03-01T15:13:32;26.80;;;15.33;;
19358;SDS011;9815;52.334;20.890;2023-03-01T15:16:02;27.13;;;14.50;;